createdAt,value
2022-09-27T00:01:12.499Z,57.35
2022-09-27T00:03:41.158Z,57.23
2022-09-27T00:06:14.318Z,57.36
2022-09-27T00:08:43.644Z,57.34
2022-09-27T00:11:17.569Z,57.50
2022-09-27T00:13:46.083Z,57.16
2022-09-27T00:16:14.438Z,57.68
2022-09-27T00:18:42.927Z,57.38
2022-09-27T00:21:14.902Z,57.49
2022-09-27T00:23:43.254Z,57.11
2022-09-27T00:26:13.248Z,57.60
2022-09-27T00:28:41.822Z,57.47
2022-09-27T00:31:20.951Z,57.62
2022-09-27T00:33:50.588Z,57.68
2022-09-27T00:36:21.644Z,57.37
2022-09-27T00:38:50.074Z,57.41
2022-09-27T00:41:20.460Z,57.28
2022-09-27T00:43:50.516Z,57.75
2022-09-27T00:46:26.704Z,57.56
2022-09-27T00:49:05.639Z,57.44
2022-09-27T00:51:38.212Z,57.64
2022-09-27T00:54:07.118Z,57.54
2022-09-27T00:56:36.790Z,57.66
2022-09-27T00:59:09.057Z,57.20
2022-09-27T01:01:37.405Z,57.67
2022-09-27T01:04:08.823Z,57.40
2022-09-27T01:06:38.641Z,57.42
2022-09-27T01:09:08.181Z,57.43
2022-09-27T01:11:42.986Z,57.50
2022-09-27T01:14:39.373Z,57.60
2022-09-27T01:17:18.499Z,57.65
2022-09-27T01:20:13.554Z,57.67
2022-09-27T01:22:52.545Z,57.70
2022-09-27T01:25:39.410Z,57.48
2022-09-27T01:28:20.719Z,57.33
2022-09-27T01:30:55.210Z,57.60
2022-09-27T01:33:42.351Z,57.38
2022-09-27T01:36:20.997Z,57.58
2022-09-27T01:38:57.913Z,57.31
2022-09-27T01:41:34.248Z,57.54
2022-09-27T01:44:23.272Z,57.24
2022-09-27T01:47:00.012Z,57.68
2022-09-27T01:49:46.005Z,57.64
2022-09-27T01:52:17.829Z,57.81
2022-09-27T01:54:49.108Z,57.89
2022-09-27T01:57:50.441Z,57.63
2022-09-27T02:00:25.035Z,57.66
2022-09-27T02:03:00.494Z,57.82
2022-09-27T02:05:33.383Z,57.95
2022-09-27T02:08:15.456Z,57.78
2022-09-27T02:10:46.207Z,57.71
2022-09-27T02:13:22.616Z,57.81
2022-09-27T02:15:59.564Z,57.78
2022-09-27T02:18:51.471Z,57.63
2022-09-27T02:21:21.028Z,57.71
2022-09-27T02:23:52.648Z,57.74
2022-09-27T02:26:24.029Z,57.76
2022-09-27T02:28:57.883Z,57.58
2022-09-27T02:31:32.497Z,57.62
2022-09-27T02:34:04.718Z,57.69
2022-09-27T02:36:32.987Z,57.56
2022-09-27T02:39:01.446Z,58.03
2022-09-27T02:41:32.167Z,57.71
2022-09-27T02:44:02.864Z,57.66
2022-09-27T02:46:57.182Z,57.78
2022-09-27T02:49:40.251Z,57.80
2022-09-27T02:52:24.453Z,57.60
2022-09-27T02:54:58.621Z,57.72
2022-09-27T02:57:58.585Z,57.90
2022-09-27T03:00:49.468Z,57.72
2022-09-27T03:03:41.282Z,57.97
2022-09-27T03:06:12.691Z,57.83
2022-09-27T03:08:41.900Z,57.99
2022-09-27T03:11:10.278Z,57.85
2022-09-27T03:13:55.863Z,58.15
2022-09-27T03:16:28.047Z,57.82
2022-09-27T03:19:11.250Z,57.98
2022-09-27T03:22:03.510Z,57.94
2022-09-27T03:24:31.905Z,57.75
2022-09-27T03:27:00.440Z,57.88
2022-09-27T03:29:28.952Z,58.07
2022-09-27T03:32:05.314Z,58.00
2022-09-27T03:34:55.283Z,58.03
2022-09-27T03:37:26.992Z,58.32
2022-09-27T03:39:55.233Z,58.09
2022-09-27T03:42:23.513Z,58.01
2022-09-27T03:44:53.518Z,58.18
2022-09-27T03:47:23.065Z,58.06
2022-09-27T03:49:51.352Z,58.22
2022-09-27T03:52:19.591Z,58.06
2022-09-27T03:54:49.252Z,58.10
2022-09-27T03:57:17.816Z,58.28
2022-09-27T03:59:46.199Z,58.06
2022-09-27T04:02:45.731Z,58.08
2022-09-27T04:05:26.828Z,57.96
2022-09-27T04:08:01.598Z,58.00
2022-09-27T04:10:34.034Z,57.89
2022-09-27T04:13:02.789Z,58.06
2022-09-27T04:15:35.883Z,57.58
2022-09-27T04:18:23.136Z,58.29
2022-09-27T04:21:20.512Z,57.91
2022-09-27T04:23:52.716Z,57.88
2022-09-27T04:26:25.817Z,57.98
2022-09-27T04:29:00.917Z,58.08
2022-09-27T04:31:29.846Z,58.07
2022-09-27T04:34:10.217Z,57.93
2022-09-27T04:36:38.039Z,57.90
2022-09-27T04:39:10.782Z,58.01
2022-09-27T04:41:45.014Z,58.12
2022-09-27T04:44:13.562Z,57.93
2022-09-27T04:46:49.071Z,58.06
2022-09-27T04:49:18.047Z,57.95
2022-09-27T04:51:47.089Z,57.89
2022-09-27T04:54:16.084Z,57.88
2022-09-27T04:56:53.993Z,58.01
2022-09-27T04:59:22.599Z,58.38
2022-09-27T05:01:51.213Z,58.23
2022-09-27T05:04:39.295Z,58.04
2022-09-27T05:07:09.678Z,57.79
2022-09-27T05:09:45.209Z,57.97
2022-09-27T05:12:14.884Z,58.26
2022-09-27T05:14:47.282Z,57.74
2022-09-27T05:17:36.015Z,58.13
2022-09-27T05:20:22.850Z,57.58
2022-09-27T05:23:00.311Z,57.61
2022-09-27T05:25:28.786Z,57.76
2022-09-27T05:27:59.292Z,57.77
2022-09-27T05:30:28.278Z,57.96
2022-09-27T05:33:06.643Z,57.50
2022-09-27T05:35:54.151Z,57.44
2022-09-27T05:38:25.246Z,57.17
2022-09-27T05:40:56.949Z,57.05
2022-09-27T05:43:28.311Z,57.62
2022-09-27T05:45:58.651Z,57.28
2022-09-27T05:48:30.239Z,57.17
2022-09-27T05:51:08.240Z,57.37
2022-09-27T05:53:39.672Z,56.97
2022-09-27T05:56:13.422Z,57.28
2022-09-27T05:59:17.877Z,57.33
2022-09-27T06:02:06.472Z,57.69
2022-09-27T06:05:03.656Z,57.60
2022-09-27T06:07:51.923Z,57.34
2022-09-27T06:10:31.990Z,57.30
2022-09-27T06:13:02.317Z,57.50
2022-09-27T06:15:39.981Z,57.37
2022-09-27T06:18:10.337Z,57.53
2022-09-27T06:20:39.566Z,57.40
2022-09-27T06:23:09.595Z,57.47
2022-09-27T06:25:39.420Z,57.56
2022-09-27T06:28:17.571Z,57.42
2022-09-27T06:30:50.926Z,57.51
2022-09-27T06:33:37.401Z,57.15
2022-09-27T06:36:07.547Z,57.45
2022-09-27T06:38:38.339Z,57.23
2022-09-27T06:41:16.407Z,57.42
2022-09-27T06:43:53.520Z,56.98
2022-09-27T06:46:35.242Z,57.50
2022-09-27T06:49:31.652Z,57.30
2022-09-27T06:52:00.008Z,57.37
2022-09-27T06:54:28.237Z,57.39
2022-09-27T06:57:00.289Z,57.01
2022-09-27T06:59:48.222Z,57.20
2022-09-27T07:02:36.560Z,56.95
2022-09-27T07:05:34.516Z,57.36
2022-09-27T07:08:14.983Z,57.18
2022-09-27T07:10:43.528Z,57.03
2022-09-27T07:13:12.899Z,56.84
2022-09-27T07:15:57.815Z,56.50
2022-09-27T07:18:49.032Z,57.02
2022-09-27T07:21:35.108Z,56.99
2022-09-27T07:24:16.915Z,56.88
2022-09-27T07:27:07.851Z,56.63
2022-09-27T07:29:36.669Z,55.91
2022-09-27T07:35:23.076Z,56.54
2022-09-27T07:37:51.634Z,56.34
2022-09-27T07:40:20.442Z,55.94
2022-09-27T07:42:48.758Z,56.47
2022-09-27T07:45:17.222Z,56.49
2022-09-27T07:48:13.868Z,56.39
2022-09-27T07:51:08.405Z,56.51
2022-09-27T07:53:55.052Z,56.10
2022-09-27T07:56:36.527Z,56.24
2022-09-27T07:59:06.757Z,56.24
2022-09-27T08:01:35.937Z,56.22
2022-09-27T08:04:05.541Z,56.05
2022-09-27T08:06:35.713Z,56.18
2022-09-27T08:09:07.253Z,56.48
2022-09-27T08:11:37.259Z,56.39
2022-09-27T08:14:06.266Z,56.47
2022-09-27T08:16:36.424Z,55.94
2022-09-27T08:19:11.141Z,56.28
2022-09-27T08:22:04.549Z,56.22
2022-09-27T08:24:54.328Z,56.34
2022-09-27T08:27:43.577Z,56.31
2022-09-27T08:35:50.068Z,56.24
2022-09-27T08:38:19.937Z,56.03
2022-09-27T08:40:54.489Z,56.22
2022-09-27T08:43:31.696Z,55.85
2022-09-27T08:46:08.248Z,55.79
2022-09-27T08:48:37.753Z,56.21
2022-09-27T08:51:07.408Z,56.39
2022-09-27T08:53:40.622Z,56.14
2022-09-27T08:56:10.164Z,56.25
2022-09-27T08:58:50.976Z,56.24
2022-09-27T09:01:28.657Z,56.27
2022-09-27T09:04:05.013Z,55.86
2022-09-27T09:06:38.392Z,55.73
2022-09-27T09:09:15.944Z,55.77
2022-09-27T09:12:18.459Z,55.61
2022-09-27T09:14:57.506Z,56.25
2022-09-27T09:17:36.345Z,55.42
2022-09-27T09:20:38.910Z,55.79
2022-09-27T09:23:24.646Z,56.12
2022-09-27T09:25:59.288Z,55.72
2022-09-27T09:28:39.264Z,55.28
2022-09-27T09:31:12.793Z,55.41
2022-09-27T09:33:44.466Z,55.32
2022-09-27T09:36:22.039Z,55.85
2022-09-27T09:38:52.568Z,55.76
2022-09-27T09:41:26.618Z,55.52
2022-09-27T09:43:58.886Z,55.67
2022-09-27T09:46:33.229Z,55.70
2022-09-27T09:49:07.399Z,55.16
2022-09-27T09:51:39.402Z,55.28
2022-09-27T09:54:15.643Z,55.51
2022-09-27T09:56:48.331Z,55.09
2022-09-27T09:59:19.566Z,54.73
2022-09-27T10:01:50.828Z,55.19
2022-09-27T10:04:22.410Z,55.30
2022-09-27T10:06:53.125Z,55.39
2022-09-27T10:09:24.904Z,55.44
2022-09-27T10:12:13.590Z,55.98
2022-09-27T10:14:45.675Z,56.26
2022-09-27T10:17:17.850Z,55.82
2022-09-27T10:19:48.460Z,56.10
2022-09-27T10:22:20.503Z,55.66
2022-09-27T10:24:58.438Z,55.59
2022-09-27T10:27:49.228Z,55.48
2022-09-27T10:30:25.467Z,55.50
2022-09-27T10:32:56.998Z,55.44
2022-09-27T10:35:45.102Z,54.88
2022-09-27T10:38:27.499Z,55.30
2022-09-27T10:41:18.677Z,55.52
2022-09-27T10:43:48.360Z,55.28
2022-09-27T10:46:32.405Z,55.37
2022-09-27T10:49:20.081Z,54.54
2022-09-27T10:51:51.709Z,55.65
2022-09-27T10:54:21.721Z,54.76
2022-09-27T10:57:01.958Z,54.59
2022-09-27T11:00:28.455Z,54.75
2022-09-27T11:03:01.528Z,54.72
2022-09-27T11:05:36.023Z,54.21
2022-09-27T11:08:23.156Z,54.23
2022-09-27T11:11:08.241Z,54.18
2022-09-27T11:13:39.415Z,54.23
2022-09-27T11:16:21.117Z,53.98
2022-09-27T11:19:01.743Z,54.27
2022-09-27T11:21:35.087Z,53.92
2022-09-27T11:24:14.064Z,53.31
2022-09-27T11:26:50.991Z,53.34
2022-09-27T11:29:26.571Z,53.23
2022-09-27T11:32:30.868Z,53.02
2022-09-27T11:35:32.482Z,53.62
2022-09-27T11:38:10.236Z,53.22
2022-09-27T11:40:48.412Z,53.74
2022-09-27T11:43:27.832Z,54.09
2022-09-27T11:46:16.771Z,54.08
2022-09-27T11:49:10.795Z,52.73
2022-09-27T11:51:57.448Z,52.65
2022-09-27T11:54:37.175Z,53.19
2022-09-27T11:57:07.877Z,53.38
2022-09-27T11:59:51.335Z,53.63
2022-09-27T12:02:32.981Z,53.49
2022-09-27T12:05:11.382Z,53.92
2022-09-27T12:07:49.455Z,53.54
2022-09-27T12:10:19.865Z,53.51
2022-09-27T12:12:53.532Z,53.26
2022-09-27T12:15:22.929Z,53.38
2022-09-27T12:17:55.739Z,52.83
2022-09-27T12:20:27.843Z,53.55
2022-09-27T12:23:00.696Z,54.16
2022-09-27T12:25:58.919Z,53.98
2022-09-27T12:28:37.030Z,53.40
2022-09-27T12:31:27.930Z,53.36
2022-09-27T12:34:04.462Z,53.11
2022-09-27T12:36:38.353Z,52.66
2022-09-27T12:39:14.612Z,53.12
2022-09-27T12:41:50.109Z,53.04
2022-09-27T12:44:39.593Z,52.87
2022-09-27T12:47:17.011Z,52.87
2022-09-27T12:49:50.812Z,53.16
2022-09-27T12:52:25.398Z,52.79
2022-09-27T12:55:10.969Z,52.98
2022-09-27T12:57:45.945Z,53.01
2022-09-27T13:00:21.030Z,53.35
2022-09-27T13:03:20.340Z,52.96
2022-09-27T13:06:18.141Z,53.05
2022-09-27T13:09:02.617Z,52.65
2022-09-27T13:11:43.335Z,53.32
2022-09-27T13:14:18.666Z,52.38
2022-09-27T13:16:48.144Z,52.43
2022-09-27T13:19:40.302Z,52.36
2022-09-27T13:22:10.050Z,52.24
2022-09-27T13:24:49.747Z,52.38
2022-09-27T13:27:43.759Z,52.81
2022-09-27T13:30:48.381Z,52.12
2022-09-27T13:33:32.965Z,52.55
2022-09-27T13:36:20.043Z,52.07
2022-09-27T13:39:01.855Z,52.93
2022-09-27T13:41:39.166Z,52.81
2022-09-27T13:44:14.130Z,52.07
2022-09-27T13:46:54.516Z,52.52
2022-09-27T13:49:29.419Z,52.44
2022-09-27T13:52:20.737Z,51.91
2022-09-27T13:54:56.105Z,51.63
2022-09-27T13:57:52.037Z,52.30
2022-09-27T14:00:29.671Z,52.96
2022-09-27T14:03:03.891Z,51.93
2022-09-27T14:05:37.627Z,51.91
2022-09-27T14:08:08.151Z,52.14
2022-09-27T14:10:37.084Z,51.91
2022-09-27T14:13:06.463Z,51.64
2022-09-27T14:15:45.732Z,52.40
2022-09-27T14:18:14.849Z,52.07
2022-09-27T14:20:45.939Z,52.49
2022-09-27T14:23:27.657Z,52.15
2022-09-27T14:25:57.796Z,52.63
2022-09-27T14:28:30.306Z,52.61
2022-09-27T14:31:23.074Z,52.53
2022-09-27T14:34:13.997Z,53.05
2022-09-27T14:37:07.455Z,53.09
2022-09-27T14:39:54.966Z,53.25
2022-09-27T14:42:36.506Z,53.34
2022-09-27T14:45:21.007Z,53.13
2022-09-27T14:47:51.641Z,53.39
2022-09-27T14:50:24.819Z,53.50
2022-09-27T14:52:56.109Z,53.75
2022-09-27T14:55:25.816Z,54.16
2022-09-27T14:57:55.265Z,53.95
2022-09-27T15:00:26.204Z,53.94
2022-09-27T15:02:58.985Z,53.90
2022-09-27T15:05:29.060Z,54.02
2022-09-27T15:07:58.189Z,54.42
2022-09-27T15:10:31.237Z,54.67
2022-09-27T15:13:01.426Z,54.49
2022-09-27T15:15:32.016Z,54.50
2022-09-27T15:18:02.264Z,54.85
2022-09-27T15:20:34.896Z,54.73
2022-09-27T15:23:04.714Z,54.80
2022-09-27T15:25:37.952Z,54.89
2022-09-27T15:28:07.390Z,54.90
2022-09-27T15:30:37.406Z,54.73
2022-09-27T15:33:08.827Z,54.85
2022-09-27T15:35:37.515Z,54.72
2022-09-27T15:38:15.333Z,54.99
2022-09-27T15:41:11.753Z,54.97
2022-09-27T15:43:42.999Z,55.13
2022-09-27T15:46:36.520Z,55.01
2022-09-27T15:49:27.243Z,55.04
2022-09-27T15:51:56.762Z,55.08
2022-09-27T15:54:27.132Z,55.16
2022-09-27T15:56:57.045Z,55.01
2022-09-27T15:59:27.586Z,55.11
2022-09-27T16:01:57.292Z,55.25
2022-09-27T16:04:31.078Z,55.21
2022-09-27T16:07:01.952Z,55.40
2022-09-27T16:09:30.463Z,55.39
2022-09-27T16:11:58.769Z,55.38
2022-09-27T16:14:27.176Z,55.41
2022-09-27T16:17:00.449Z,55.63
2022-09-27T16:19:30.318Z,55.74
2022-09-27T16:21:58.617Z,55.84
2022-09-27T16:24:28.842Z,55.62
2022-09-27T16:26:57.273Z,55.38
2022-09-27T16:29:25.911Z,55.71
2022-09-27T16:31:54.555Z,55.64
2022-09-27T16:34:22.885Z,56.05
2022-09-27T16:36:52.503Z,56.49
2022-09-27T16:39:20.823Z,56.23
2022-09-27T16:41:49.299Z,56.01
2022-09-27T16:44:18.187Z,56.24
2022-09-27T16:46:47.267Z,56.09
2022-09-27T16:49:34.082Z,56.32
2022-09-27T16:52:04.136Z,56.07
2022-09-27T16:54:35.117Z,56.40
2022-09-27T16:57:03.487Z,55.95
2022-09-27T16:59:32.357Z,56.21
2022-09-27T17:02:00.721Z,56.58
2022-09-27T17:04:29.630Z,56.23
2022-09-27T17:06:58.280Z,56.41
2022-09-27T17:09:27.901Z,56.43
2022-09-27T17:11:56.317Z,56.68
2022-09-27T17:14:25.321Z,56.29
2022-09-27T17:16:53.925Z,56.48
2022-09-27T17:19:23.318Z,56.69
2022-09-27T17:21:51.913Z,56.26
2022-09-27T17:24:20.166Z,56.56
2022-09-27T17:26:49.796Z,56.48
2022-09-27T17:29:18.862Z,56.63
2022-09-27T17:31:47.143Z,56.79
2022-09-27T17:34:15.915Z,56.55
2022-09-27T17:36:48.235Z,56.77
2022-09-27T17:39:18.512Z,56.43
2022-09-27T17:41:46.811Z,56.96
2022-09-27T17:44:18.233Z,56.84
2022-09-27T17:46:47.210Z,56.68
2022-09-27T17:49:33.086Z,56.76
2022-09-27T17:52:01.646Z,57.00
2022-09-27T17:54:30.002Z,56.62
2022-09-27T17:56:58.263Z,56.98
2022-09-27T17:59:27.919Z,56.96
2022-09-27T18:01:56.249Z,56.53
2022-09-27T18:04:25.623Z,57.04
2022-09-27T18:06:54.384Z,57.12
2022-09-27T18:09:22.704Z,57.17
2022-09-27T18:11:51.028Z,56.78
2022-09-27T18:14:21.007Z,57.23
2022-09-27T18:16:50.875Z,57.09
2022-09-27T18:19:19.356Z,57.13
2022-09-27T18:21:47.711Z,56.83
2022-09-27T18:24:16.145Z,57.08
2022-09-27T18:26:46.467Z,57.18
2022-09-27T18:29:16.263Z,57.30
2022-09-27T18:31:48.493Z,56.60
2022-09-27T18:34:19.211Z,56.87
2022-09-27T18:36:47.601Z,56.86
2022-09-27T18:39:18.849Z,56.91
2022-09-27T18:41:48.861Z,57.09
2022-09-27T18:44:18.722Z,57.08
2022-09-27T18:46:47.365Z,57.35
2022-09-27T18:49:21.068Z,57.05
2022-09-27T18:51:51.978Z,57.09
2022-09-27T18:54:22.917Z,57.01
2022-09-27T18:56:52.227Z,57.14
2022-09-27T18:59:23.627Z,57.01
2022-09-27T19:01:52.302Z,56.99
2022-09-27T19:04:24.649Z,57.18
2022-09-27T19:06:53.963Z,57.30
2022-09-27T19:09:22.591Z,57.52
2022-09-27T19:11:51.034Z,57.11
2022-09-27T19:14:21.063Z,57.10
2022-09-27T19:17:39.628Z,57.07
2022-09-27T19:20:11.445Z,57.22
2022-09-27T19:22:39.738Z,57.23
2022-09-27T19:25:10.039Z,57.29
2022-09-27T19:27:43.078Z,57.14
2022-09-27T19:30:12.953Z,56.90
2022-09-27T19:32:41.306Z,57.13
2022-09-27T19:35:11.627Z,57.12
2022-09-27T19:37:39.867Z,57.45
2022-09-27T19:40:08.894Z,56.91
2022-09-27T19:42:37.153Z,57.26
2022-09-27T19:45:11.445Z,57.24
2022-09-27T19:47:40.220Z,57.06
2022-09-27T19:50:09.745Z,57.25
2022-09-27T19:52:39.639Z,57.51
2022-09-27T19:55:09.045Z,57.30
2022-09-27T19:57:37.344Z,57.07
2022-09-27T20:00:06.577Z,57.06
2022-09-27T20:02:34.998Z,57.16
2022-09-27T20:05:03.448Z,57.34
2022-09-27T20:07:34.861Z,57.17
2022-09-27T20:10:05.136Z,57.51
2022-09-27T20:12:33.419Z,57.39
2022-09-27T20:15:01.716Z,57.14
2022-09-27T20:17:32.732Z,57.08
2022-09-27T20:20:01.200Z,57.28
2022-09-27T20:22:29.625Z,57.37
2022-09-27T20:24:57.876Z,57.51
2022-09-27T20:27:27.599Z,57.31
2022-09-27T20:29:57.086Z,57.25
2022-09-27T20:32:28.152Z,57.63
2022-09-27T20:34:57.067Z,57.09
2022-09-27T20:37:25.518Z,56.98
2022-09-27T20:39:54.141Z,57.15
2022-09-27T20:42:22.480Z,57.37
2022-09-27T20:44:54.480Z,57.42
2022-09-27T20:47:23.319Z,57.47
2022-09-27T20:49:51.669Z,57.42
2022-09-27T20:52:20.532Z,57.60
2022-09-27T20:54:48.824Z,57.23
2022-09-27T20:57:17.131Z,57.63
2022-09-27T20:59:45.371Z,57.32
2022-09-27T21:02:15.297Z,57.13
2022-09-27T21:04:43.823Z,57.43
2022-09-27T21:07:12.112Z,57.47
2022-09-27T21:09:40.406Z,57.49
2022-09-27T21:12:08.709Z,57.24
2022-09-27T21:14:37.019Z,57.25
2022-09-27T21:17:05.255Z,57.25
2022-09-27T21:19:35.637Z,57.35
2022-09-27T21:22:03.951Z,57.15
2022-09-27T21:24:32.409Z,57.72
2022-09-27T21:27:00.848Z,57.53
2022-09-27T21:29:29.205Z,57.02
2022-09-27T21:31:57.551Z,57.11
2022-09-27T21:34:25.900Z,57.45
2022-09-27T21:36:55.773Z,57.29
2022-09-27T21:39:24.088Z,57.39
2022-09-27T21:41:52.364Z,57.48
2022-09-27T21:44:20.681Z,57.61
2022-09-27T21:46:50.382Z,57.40
2022-09-27T21:49:19.023Z,57.24
2022-09-27T21:51:47.376Z,57.27
2022-09-27T21:54:17.182Z,57.51
2022-09-27T21:56:45.509Z,57.27
2022-09-27T21:59:15.463Z,57.28
2022-09-27T22:01:44.938Z,57.64
2022-09-27T22:04:13.718Z,57.48
2022-09-27T22:06:42.425Z,57.43
2022-09-27T22:09:13.882Z,57.63
2022-09-27T22:11:46.248Z,57.64
2022-09-27T22:14:15.257Z,57.48
2022-09-27T22:16:43.662Z,57.48
2022-09-27T22:19:13.348Z,57.71
2022-09-27T22:21:42.622Z,57.60
2022-09-27T22:24:13.655Z,57.80
2022-09-27T22:26:47.048Z,57.77
2022-09-27T22:29:15.656Z,57.58
2022-09-27T22:31:44.052Z,57.49
2022-09-27T22:34:16.973Z,57.90
2022-09-27T22:36:45.413Z,57.86
2022-09-27T22:39:14.119Z,57.50
2022-09-27T22:41:43.862Z,57.81
2022-09-27T22:44:12.159Z,57.73
2022-09-27T22:46:40.741Z,57.89
2022-09-27T22:49:10.034Z,57.78
2022-09-27T22:51:38.485Z,57.43
2022-09-27T22:54:07.333Z,57.21
2022-09-27T22:56:35.671Z,57.52
2022-09-27T22:59:05.490Z,57.57
2022-09-27T23:01:33.780Z,57.95
2022-09-27T23:04:02.638Z,57.92
2022-09-27T23:06:32.048Z,57.89
2022-09-27T23:09:02.673Z,57.88
2022-09-27T23:11:31.139Z,57.59
2022-09-27T23:13:59.472Z,57.99
2022-09-27T23:16:29.162Z,57.91
2022-09-27T23:18:57.887Z,58.22
2022-09-27T23:21:28.624Z,57.83
2022-09-27T23:23:59.614Z,57.76
2022-09-27T23:26:28.920Z,58.04
2022-09-27T23:28:58.780Z,57.51
2022-09-27T23:31:30.244Z,57.84
2022-09-27T23:33:59.860Z,58.05
2022-09-27T23:36:28.740Z,58.03
2022-09-27T23:39:00.419Z,58.09
2022-09-27T23:41:28.969Z,57.97
2022-09-27T23:43:57.505Z,58.02
2022-09-27T23:46:25.873Z,57.75
2022-09-27T23:48:58.819Z,57.92
2022-09-27T23:51:27.315Z,58.03
2022-09-27T23:53:57.054Z,57.95
2022-09-27T23:56:25.701Z,58.01
2022-09-27T23:58:54.181Z,58.06
